createdAt,value
2019-02-06T00:01:10.892Z,1024.60
2019-02-06T00:02:11.502Z,1024.59
2019-02-06T00:03:09.549Z,1024.61
2019-02-06T00:04:09.488Z,1024.64
2019-02-06T00:05:14.374Z,1024.67
2019-02-06T00:06:10.478Z,1024.62
2019-02-06T00:07:09.456Z,1024.62
2019-02-06T00:08:09.476Z,1024.61
2019-02-06T00:09:09.428Z,1024.66
2019-02-06T00:10:09.433Z,1024.72
2019-02-06T00:11:09.432Z,1024.68
2019-02-06T00:12:09.422Z,1024.72
2019-02-06T00:13:09.438Z,1024.67
2019-02-06T00:14:09.402Z,1024.71
2019-02-06T00:15:09.370Z,1024.65
2019-02-06T00:16:09.376Z,1024.73
2019-02-06T00:17:09.389Z,1024.72
2019-02-06T00:18:11.964Z,1024.74
2019-02-06T00:19:09.362Z,1024.71
2019-02-06T00:20:09.355Z,1024.70
2019-02-06T00:21:09.355Z,1024.72
2019-02-06T00:22:09.296Z,1024.65
2019-02-06T00:23:09.294Z,1024.68
2019-02-06T00:24:09.396Z,1024.72
2019-02-06T00:25:09.306Z,1024.64
2019-02-06T00:26:09.258Z,1024.63
2019-02-06T00:27:09.276Z,1024.66
2019-02-06T00:28:11.274Z,1024.66
2019-02-06T00:29:11.904Z,1024.67
2019-02-06T00:30:09.246Z,1024.72
2019-02-06T00:31:11.230Z,1024.68
2019-02-06T00:32:11.196Z,1024.74
2019-02-06T00:33:09.175Z,1024.66
2019-02-06T00:34:09.182Z,1024.68
2019-02-06T00:35:09.164Z,1024.67
2019-02-06T00:36:09.157Z,1024.69
2019-02-06T00:37:09.180Z,1024.63
2019-02-06T00:38:09.132Z,1024.65
2019-02-06T00:39:09.197Z,1024.67
2019-02-06T00:40:11.094Z,1024.64
2019-02-06T00:41:11.136Z,1024.62
2019-02-06T00:42:09.087Z,1024.68
2019-02-06T00:43:09.079Z,1024.64
2019-02-06T00:44:09.146Z,1024.62
2019-02-06T00:45:12.052Z,1024.62
2019-02-06T00:46:09.055Z,1024.66
2019-02-06T00:47:09.022Z,1024.59
2019-02-06T00:48:09.135Z,1024.65
2019-02-06T00:50:10.818Z,1024.54
2019-02-06T00:51:29.980Z,1024.62
2019-02-06T00:52:08.972Z,1024.58
2019-02-06T00:53:08.978Z,1024.61
2019-02-06T00:54:08.992Z,1024.56
2019-02-06T00:55:08.978Z,1024.61
2019-02-06T00:56:08.920Z,1024.60
2019-02-06T00:58:10.400Z,1024.62
2019-02-06T00:59:08.992Z,1024.60
2019-02-06T01:01:10.238Z,1024.60
2019-02-06T01:02:08.864Z,1024.64
2019-02-06T01:03:10.964Z,1024.66
2019-02-06T01:04:11.418Z,1024.66
2019-02-06T01:05:08.846Z,1024.66
2019-02-06T01:06:08.827Z,1024.67
2019-02-06T01:07:08.831Z,1024.67
2019-02-06T01:08:08.831Z,1024.62
2019-02-06T01:09:11.402Z,1024.66
2019-02-06T01:10:10.782Z,1024.71
2019-02-06T01:12:10.277Z,1024.69
2019-02-06T01:13:10.744Z,1024.72
2019-02-06T01:14:08.742Z,1024.71
2019-02-06T01:16:11.354Z,1024.76
2019-02-06T01:17:08.750Z,1024.72
2019-02-06T01:18:10.778Z,1024.67
2019-02-06T01:19:08.726Z,1024.66
2019-02-06T01:20:08.713Z,1024.68
2019-02-06T01:21:08.694Z,1024.66
2019-02-06T01:23:09.958Z,1024.62
2019-02-06T01:24:08.744Z,1024.60
2019-02-06T01:25:08.669Z,1024.55
2019-02-06T01:27:10.172Z,1024.56
2019-02-06T01:28:08.600Z,1024.59
2019-02-06T01:29:08.576Z,1024.66
2019-02-06T01:32:10.316Z,1024.64
2019-02-06T01:33:08.596Z,1024.66
2019-02-06T01:34:08.526Z,1024.68
2019-02-06T01:35:08.602Z,1024.71
2019-02-06T01:36:08.549Z,1024.70
2019-02-06T01:37:08.530Z,1024.67
2019-02-06T01:38:08.496Z,1024.66
2019-02-06T01:42:09.931Z,1024.66
2019-02-06T01:43:08.590Z,1024.73
2019-02-06T01:47:10.069Z,1024.67
2019-02-06T01:49:09.369Z,1024.73
2019-02-06T01:50:08.414Z,1024.70
2019-02-06T01:51:08.395Z,1024.70
2019-02-06T01:53:09.730Z,1024.70
2019-02-06T01:54:08.338Z,1024.69
2019-02-06T01:55:08.318Z,1024.73
2019-02-06T01:56:08.339Z,1024.71
2019-02-06T02:00:09.420Z,1024.64
2019-02-06T02:02:09.327Z,1024.63
2019-02-06T02:03:08.210Z,1024.70
2019-02-06T02:04:08.226Z,1024.75
2019-02-06T02:05:08.229Z,1024.69
2019-02-06T02:06:08.220Z,1024.68
2019-02-06T02:09:30.164Z,1024.66
2019-02-06T02:10:08.150Z,1024.72
2019-02-06T02:11:11.924Z,1024.70
2019-02-06T02:12:08.144Z,1024.69
2019-02-06T02:13:19.411Z,1024.61
2019-02-06T02:14:08.891Z,1024.64
2019-02-06T02:15:08.100Z,1024.61
2019-02-06T02:16:09.903Z,1024.59
2019-02-06T02:17:08.090Z,1024.56
2019-02-06T02:18:08.094Z,1024.60
2019-02-06T02:20:11.084Z,1024.64
2019-02-06T02:21:08.091Z,1024.63
2019-02-06T02:22:10.074Z,1024.66
2019-02-06T02:23:10.014Z,1024.65
2019-02-06T02:24:10.016Z,1024.67
2019-02-06T02:25:08.021Z,1024.69
2019-02-06T02:26:07.983Z,1024.72
2019-02-06T02:28:11.988Z,1024.73
2019-02-06T02:29:28.984Z,1024.75
2019-02-06T02:30:28.971Z,1024.78
2019-02-06T02:31:28.977Z,1024.70
2019-02-06T02:32:07.900Z,1024.79
2019-02-06T02:33:07.894Z,1024.72
2019-02-06T02:34:07.908Z,1024.72
2019-02-06T02:35:07.895Z,1024.70
2019-02-06T02:36:15.860Z,1024.70
2019-02-06T02:37:10.405Z,1024.70
2019-02-06T02:39:10.702Z,1024.65
2019-02-06T02:40:07.842Z,1024.72
2019-02-06T02:41:07.842Z,1024.72
2019-02-06T02:42:07.830Z,1024.64
2019-02-06T02:43:07.784Z,1024.71
2019-02-06T02:44:09.813Z,1024.75
2019-02-06T02:45:07.853Z,1024.71
2019-02-06T02:46:07.755Z,1024.73
2019-02-06T02:47:07.783Z,1024.64
2019-02-06T02:48:07.738Z,1024.67
2019-02-06T02:49:07.720Z,1024.62
2019-02-06T02:50:07.727Z,1024.65
2019-02-06T02:51:07.706Z,1024.66
2019-02-06T02:52:09.433Z,1024.68
2019-02-06T02:53:07.699Z,1024.68
2019-02-06T02:54:07.676Z,1024.65
2019-02-06T02:55:07.654Z,1024.67
2019-02-06T02:56:07.665Z,1024.64
2019-02-06T02:57:07.945Z,1024.67
2019-02-06T02:58:07.632Z,1024.68
2019-02-06T02:59:07.652Z,1024.68
2019-02-06T03:01:09.090Z,1024.63
2019-02-06T03:02:09.672Z,1024.62
2019-02-06T03:03:07.592Z,1024.62
2019-02-06T03:04:07.573Z,1024.62
2019-02-06T03:05:11.583Z,1024.60
2019-02-06T03:07:08.974Z,1024.63
2019-02-06T03:08:28.540Z,1024.66
2019-02-06T03:09:07.524Z,1024.63
2019-02-06T03:12:09.290Z,1024.58
2019-02-06T03:13:09.518Z,1024.53
2019-02-06T03:14:07.452Z,1024.51
2019-02-06T03:15:07.445Z,1024.52
2019-02-06T03:17:10.587Z,1024.54
2019-02-06T03:18:07.406Z,1024.52
2019-02-06T03:21:08.704Z,1024.44
2019-02-06T03:23:31.409Z,1024.51
2019-02-06T03:24:28.373Z,1024.52
2019-02-06T03:25:07.342Z,1024.50
2019-02-06T03:27:08.796Z,1024.48
2019-02-06T03:32:08.428Z,1024.44
2019-02-06T03:34:40.322Z,1024.41
2019-02-06T03:35:19.507Z,1024.41
2019-02-06T03:36:17.511Z,1024.42
2019-02-06T03:37:17.491Z,1024.41
2019-02-06T03:38:21.729Z,1024.45
2019-02-06T03:39:17.476Z,1024.43
2019-02-06T03:40:17.512Z,1024.41
2019-02-06T03:41:19.451Z,1024.39
2019-02-06T03:42:17.471Z,1024.35
2019-02-06T03:43:17.498Z,1024.32
2019-02-06T03:44:19.426Z,1024.37
2019-02-06T03:45:17.426Z,1024.35
2019-02-06T03:46:17.405Z,1024.36
2019-02-06T03:47:17.418Z,1024.40
2019-02-06T03:48:17.501Z,1024.42
2019-02-06T03:49:19.397Z,1024.40
2019-02-06T03:50:17.365Z,1024.34
2019-02-06T03:51:17.345Z,1024.38
2019-02-06T03:52:17.360Z,1024.43
2019-02-06T03:53:19.384Z,1024.42
2019-02-06T03:54:17.306Z,1024.39
2019-02-06T03:55:17.301Z,1024.40
2019-02-06T03:56:17.340Z,1024.42
2019-02-06T03:57:17.284Z,1024.44
2019-02-06T03:58:17.341Z,1024.43
2019-02-06T03:59:17.285Z,1024.40
2019-02-06T04:00:17.288Z,1024.44
2019-02-06T04:02:20.254Z,1024.39
2019-02-06T04:05:39.211Z,1024.40
2019-02-06T04:06:17.221Z,1024.37
2019-02-06T04:07:17.175Z,1024.41
2019-02-06T04:08:17.157Z,1024.40
2019-02-06T04:09:17.162Z,1024.35
2019-02-06T04:10:17.156Z,1024.40
2019-02-06T04:11:17.137Z,1024.33
2019-02-06T04:12:17.136Z,1024.34
2019-02-06T04:13:19.154Z,1024.33
2019-02-06T04:14:17.346Z,1024.33
2019-02-06T04:16:18.387Z,1024.34
2019-02-06T04:17:17.077Z,1024.33
2019-02-06T04:18:19.124Z,1024.28
2019-02-06T04:19:17.108Z,1024.25
2019-02-06T04:20:18.049Z,1024.28
2019-02-06T04:22:18.456Z,1024.22
2019-02-06T04:24:18.471Z,1024.30
2019-02-06T04:27:28.196Z,1024.27
2019-02-06T04:28:51.215Z,1024.27
2019-02-06T04:29:28.181Z,1024.25
2019-02-06T04:30:28.239Z,1024.21
2019-02-06T04:31:49.153Z,1024.23
2019-02-06T04:32:28.229Z,1024.31
2019-02-06T04:33:28.246Z,1024.30
2019-02-06T04:34:30.137Z,1024.25
2019-02-06T04:35:28.103Z,1024.29
2019-02-06T04:36:28.057Z,1024.29
2019-02-06T04:37:28.060Z,1024.30
2019-02-06T04:39:29.918Z,1024.22
2019-02-06T04:40:28.122Z,1024.26
2019-02-06T04:41:28.074Z,1024.23
2019-02-06T04:42:28.014Z,1024.21
2019-02-06T04:43:27.995Z,1024.17
2019-02-06T04:44:30.498Z,1024.20
2019-02-06T04:45:27.973Z,1024.18
2019-02-06T04:46:28.045Z,1024.15
2019-02-06T04:47:27.961Z,1024.16
2019-02-06T04:48:27.936Z,1024.17
2019-02-06T04:49:28.005Z,1024.16
2019-02-06T04:50:31.965Z,1024.17
2019-02-06T04:51:27.959Z,1024.24
2019-02-06T04:52:27.921Z,1024.12
2019-02-06T04:53:27.928Z,1024.21
2019-02-06T04:54:27.988Z,1024.15
2019-02-06T04:55:27.874Z,1024.11
2019-02-06T04:56:27.875Z,1024.09
2019-02-06T04:57:27.861Z,1024.15
2019-02-06T04:58:27.859Z,1024.10
2019-02-06T04:59:32.033Z,1024.13
2019-02-06T05:00:27.807Z,1024.10
2019-02-06T05:01:27.833Z,1024.15
2019-02-06T05:02:29.825Z,1024.17
2019-02-06T05:03:27.791Z,1024.11
2019-02-06T05:04:27.784Z,1024.11
2019-02-06T05:05:27.806Z,1024.05
2019-02-06T05:06:27.819Z,1024.10
2019-02-06T05:08:29.305Z,1024.02
2019-02-06T05:09:27.721Z,1024.02
2019-02-06T05:10:27.797Z,1024.02
2019-02-06T05:11:27.697Z,1023.98
2019-02-06T05:12:27.689Z,1024.03
2019-02-06T05:13:27.668Z,1023.98
2019-02-06T05:15:31.498Z,1024.02
2019-02-06T05:16:27.661Z,1024.05
2019-02-06T05:17:27.638Z,1024.02
2019-02-06T05:19:29.161Z,1024.03
2019-02-06T05:20:27.673Z,1024.01
2019-02-06T05:21:27.597Z,1024.01
2019-02-06T05:22:27.568Z,1024.04
2019-02-06T05:23:27.566Z,1024.00
2019-02-06T05:24:27.611Z,1023.99
2019-02-06T05:25:27.582Z,1024.01
2019-02-06T05:26:27.527Z,1024.02
2019-02-06T05:28:28.799Z,1024.01
2019-02-06T05:29:27.509Z,1023.99
2019-02-06T05:30:27.522Z,1023.94
2019-02-06T05:31:27.479Z,1023.97
2019-02-06T05:32:27.471Z,1024.01
2019-02-06T05:33:27.475Z,1024.02
2019-02-06T05:34:27.457Z,1024.09
2019-02-06T05:35:27.493Z,1024.02
2019-02-06T05:36:27.438Z,1024.07
2019-02-06T05:37:32.082Z,1024.01
2019-02-06T05:39:28.744Z,1024.08
2019-02-06T05:40:27.446Z,1024.01
2019-02-06T05:42:28.711Z,1024.08
2019-02-06T05:43:27.397Z,1024.08
2019-02-06T05:44:27.348Z,1024.05
2019-02-06T05:45:27.370Z,1024.09
2019-02-06T05:46:27.336Z,1024.08
2019-02-06T05:48:28.450Z,1024.06
2019-02-06T05:49:27.287Z,1024.03
2019-02-06T05:50:27.317Z,1024.07
2019-02-06T05:51:48.389Z,1024.06
2019-02-06T05:52:27.259Z,1024.06
2019-02-06T05:53:27.257Z,1024.05
2019-02-06T05:54:27.273Z,1024.00
2019-02-06T05:55:29.286Z,1023.98
2019-02-06T05:57:28.440Z,1023.99
2019-02-06T05:58:27.205Z,1023.96
2019-02-06T05:59:27.197Z,1023.93
2019-02-06T06:00:27.174Z,1023.93
2019-02-06T06:01:30.012Z,1023.93
2019-02-06T06:02:27.180Z,1023.90
2019-02-06T06:03:27.152Z,1023.96
2019-02-06T06:04:36.623Z,1023.96
2019-02-06T06:05:27.128Z,1023.96
2019-02-06T06:06:27.178Z,1023.99
2019-02-06T06:07:44.671Z,1023.91
2019-02-06T06:08:28.137Z,1024.02
2019-02-06T06:10:28.485Z,1024.05
2019-02-06T06:11:27.087Z,1024.06
2019-02-06T06:12:27.050Z,1024.06
2019-02-06T06:13:27.043Z,1024.07
2019-02-06T06:14:27.042Z,1024.11
2019-02-06T06:16:28.215Z,1024.11
2019-02-06T06:17:27.112Z,1024.06
2019-02-06T06:18:27.002Z,1024.06
2019-02-06T06:20:28.191Z,1023.99
2019-02-06T06:21:27.002Z,1023.95
2019-02-06T06:22:26.943Z,1023.96
2019-02-06T06:23:26.940Z,1023.97
2019-02-06T06:25:28.425Z,1023.93
2019-02-06T06:26:26.925Z,1023.88
2019-02-06T06:28:28.289Z,1023.92
2019-02-06T06:29:47.954Z,1023.91
2019-02-06T06:30:26.872Z,1023.99
2019-02-06T06:31:26.864Z,1023.97
2019-02-06T06:32:47.895Z,1024.01
2019-02-06T06:33:47.857Z,1024.03
2019-02-06T06:34:26.826Z,1024.00
2019-02-06T06:35:26.825Z,1024.04
2019-02-06T06:36:26.821Z,1024.02
2019-02-06T06:37:26.836Z,1023.99
2019-02-06T06:38:26.798Z,1024.03
2019-02-06T06:39:28.792Z,1024.00
2019-02-06T06:40:26.787Z,1023.97
2019-02-06T06:41:26.783Z,1023.92
2019-02-06T06:42:26.808Z,1023.90
2019-02-06T06:43:26.761Z,1023.91
2019-02-06T06:44:26.778Z,1023.92
2019-02-06T06:45:26.710Z,1023.88
2019-02-06T06:46:26.732Z,1023.86
2019-02-06T06:47:26.794Z,1023.87
2019-02-06T06:48:26.716Z,1023.92
2019-02-06T06:49:26.708Z,1023.86
2019-02-06T06:50:26.662Z,1023.90
2019-02-06T06:51:26.672Z,1023.76
2019-02-06T06:52:26.731Z,1023.82
2019-02-06T06:53:26.633Z,1023.82
2019-02-06T06:54:26.626Z,1023.79
2019-02-06T06:55:26.588Z,1023.75
2019-02-06T06:56:26.597Z,1023.77
2019-02-06T06:57:26.610Z,1023.71
2019-02-06T06:59:30.514Z,1023.70
2019-02-06T07:00:26.561Z,1023.75
2019-02-06T07:01:26.625Z,1023.75
2019-02-06T07:02:26.585Z,1023.76
2019-02-06T07:03:26.503Z,1023.76
2019-02-06T07:04:26.514Z,1023.74
2019-02-06T07:05:26.514Z,1023.77
2019-02-06T07:06:26.476Z,1023.78
2019-02-06T07:07:26.508Z,1023.71
2019-02-06T07:09:29.541Z,1023.72
2019-02-06T07:10:26.475Z,1023.72
2019-02-06T07:11:26.446Z,1023.65
2019-02-06T07:12:28.103Z,1023.65
2019-02-06T07:14:27.985Z,1023.67
2019-02-06T07:15:29.399Z,1023.67
2019-02-06T07:16:26.380Z,1023.64
2019-02-06T07:19:27.973Z,1023.58
2019-02-06T07:20:47.397Z,1023.59
2019-02-06T07:21:49.363Z,1023.60
2019-02-06T07:22:49.102Z,1023.49
2019-02-06T07:23:26.351Z,1023.45
2019-02-06T07:24:26.365Z,1023.45
2019-02-06T07:25:26.272Z,1023.46
2019-02-06T07:26:26.285Z,1023.38
2019-02-06T07:27:26.279Z,1023.39
2019-02-06T07:28:26.284Z,1023.41
2019-02-06T07:29:26.254Z,1023.36
2019-02-06T07:30:26.220Z,1023.32
2019-02-06T07:31:26.243Z,1023.41
2019-02-06T07:32:26.203Z,1023.36
2019-02-06T07:33:26.220Z,1023.36
2019-02-06T07:34:26.290Z,1023.35
2019-02-06T07:35:26.178Z,1023.34
2019-02-06T07:36:26.213Z,1023.31
2019-02-06T07:38:27.707Z,1023.40
2019-02-06T07:39:47.139Z,1023.48
2019-02-06T07:40:47.158Z,1023.51
2019-02-06T07:41:47.147Z,1023.53
2019-02-06T07:42:26.149Z,1023.51
2019-02-06T07:43:28.223Z,1023.57
2019-02-06T07:44:26.509Z,1023.53
2019-02-06T07:45:26.411Z,1023.57
2019-02-06T07:47:27.512Z,1023.63
2019-02-06T07:48:27.161Z,1023.54
2019-02-06T07:49:26.035Z,1023.58
2019-02-06T07:51:27.579Z,1023.58
2019-02-06T07:52:26.011Z,1023.59
2019-02-06T07:54:27.498Z,1023.59
2019-02-06T07:55:47.021Z,1023.56
2019-02-06T07:57:29.027Z,1023.60
2019-02-06T07:58:47.082Z,1023.65
2019-02-06T07:59:25.964Z,1023.67
2019-02-06T08:01:27.126Z,1023.64
2019-02-06T08:02:26.073Z,1023.61
2019-02-06T08:03:27.673Z,1023.65
2019-02-06T08:04:46.948Z,1023.61
2019-02-06T08:05:27.879Z,1023.64
2019-02-06T08:06:25.872Z,1023.62
2019-02-06T08:07:46.865Z,1023.63
2019-02-06T08:08:35.803Z,1023.59
2019-02-06T08:09:27.172Z,1023.58
2019-02-06T08:10:25.832Z,1023.51
2019-02-06T08:11:25.805Z,1023.57
2019-02-06T08:12:25.905Z,1023.54
2019-02-06T08:13:25.886Z,1023.56
2019-02-06T08:14:25.785Z,1023.54
2019-02-06T08:17:27.586Z,1023.56
2019-02-06T08:19:30.357Z,1023.58
2019-02-06T08:20:26.689Z,1023.54
2019-02-06T08:21:33.897Z,1023.49
2019-02-06T08:22:27.687Z,1023.46
2019-02-06T08:23:25.665Z,1023.49
2019-02-06T08:24:25.675Z,1023.41
2019-02-06T08:25:25.652Z,1023.43
2019-02-06T08:26:25.645Z,1023.43
2019-02-06T08:27:26.355Z,1023.42
2019-02-06T08:28:25.605Z,1023.39
2019-02-06T08:29:25.644Z,1023.41
2019-02-06T08:30:25.594Z,1023.39
2019-02-06T08:31:25.598Z,1023.42
2019-02-06T08:32:25.587Z,1023.43
2019-02-06T08:33:25.553Z,1023.43
2019-02-06T08:34:25.607Z,1023.40
2019-02-06T08:35:28.498Z,1023.40
2019-02-06T08:36:25.522Z,1023.40
2019-02-06T08:37:25.516Z,1023.39
2019-02-06T08:38:25.532Z,1023.35
2019-02-06T08:39:25.495Z,1023.39
2019-02-06T08:40:25.598Z,1023.40
2019-02-06T08:41:25.477Z,1023.40
2019-02-06T08:42:25.463Z,1023.42
2019-02-06T08:43:25.458Z,1023.38
2019-02-06T08:44:25.461Z,1023.41
2019-02-06T08:45:25.476Z,1023.38
2019-02-06T08:46:25.435Z,1023.35
2019-02-06T08:47:25.428Z,1023.30
2019-02-06T08:48:25.401Z,1023.25
2019-02-06T08:49:25.411Z,1023.27
2019-02-06T08:50:25.408Z,1023.24
2019-02-06T08:51:25.373Z,1023.22
2019-02-06T08:52:25.384Z,1023.22
2019-02-06T08:53:25.400Z,1023.19
2019-02-06T08:54:25.348Z,1023.16
2019-02-06T08:55:25.354Z,1023.13
2019-02-06T08:56:25.352Z,1023.05
2019-02-06T08:57:25.299Z,1023.11
2019-02-06T08:58:25.295Z,1023.07
2019-02-06T08:59:25.272Z,1023.06
2019-02-06T09:00:25.445Z,1023.01
2019-02-06T09:01:25.399Z,1023.04
2019-02-06T09:02:25.252Z,1023.07
2019-02-06T09:03:25.238Z,1023.03
2019-02-06T09:04:25.248Z,1023.09
2019-02-06T09:05:25.256Z,1023.07
2019-02-06T09:06:25.216Z,1023.14
2019-02-06T09:07:25.201Z,1023.16
2019-02-06T09:08:25.196Z,1023.12
2019-02-06T09:09:25.175Z,1023.15
2019-02-06T09:10:25.200Z,1023.19
2019-02-06T09:11:25.153Z,1023.16
2019-02-06T09:12:25.182Z,1023.17
2019-02-06T09:13:25.129Z,1023.16
2019-02-06T09:14:25.136Z,1023.22
2019-02-06T09:15:27.304Z,1023.18
2019-02-06T09:16:25.172Z,1023.17
2019-02-06T09:17:25.092Z,1023.14
2019-02-06T09:18:25.095Z,1023.10
2019-02-06T09:19:25.080Z,1023.12
2019-02-06T09:20:25.062Z,1023.08
2019-02-06T09:21:25.075Z,1023.09
2019-02-06T09:22:25.036Z,1023.05
2019-02-06T09:23:25.074Z,1023.10
2019-02-06T09:24:25.018Z,1023.14
2019-02-06T09:25:25.008Z,1023.04
2019-02-06T09:26:25.063Z,1023.06
2019-02-06T09:27:25.245Z,1023.11
2019-02-06T09:28:24.985Z,1023.07
2019-02-06T09:29:24.996Z,1023.07
2019-02-06T09:30:24.956Z,1023.11
2019-02-06T09:31:24.986Z,1023.11
2019-02-06T09:32:24.941Z,1023.14
2019-02-06T09:33:24.940Z,1023.21
2019-02-06T09:34:24.915Z,1023.13
2019-02-06T09:35:24.930Z,1023.11
2019-02-06T09:36:24.935Z,1023.16
2019-02-06T09:37:24.893Z,1023.19
2019-02-06T09:38:24.876Z,1023.18
2019-02-06T09:39:24.880Z,1023.13
2019-02-06T09:40:24.852Z,1023.05
2019-02-06T09:41:24.980Z,1022.99
2019-02-06T09:42:24.846Z,1022.91
2019-02-06T09:43:27.454Z,1022.92
2019-02-06T09:44:24.806Z,1022.98
2019-02-06T09:45:24.798Z,1022.94
2019-02-06T09:46:24.822Z,1022.99
2019-02-06T09:47:24.775Z,1022.97
2019-02-06T09:48:24.780Z,1022.97
2019-02-06T09:49:24.778Z,1023.02
2019-02-06T09:50:24.742Z,1022.97
2019-02-06T09:51:24.773Z,1022.97
2019-02-06T09:52:28.099Z,1023.02
2019-02-06T09:53:24.793Z,1022.95
2019-02-06T09:54:24.764Z,1022.95
2019-02-06T09:55:25.003Z,1022.91
2019-02-06T09:56:24.776Z,1022.89
2019-02-06T09:57:24.851Z,1022.89
2019-02-06T09:58:26.729Z,1022.80
2019-02-06T09:59:28.789Z,1022.87
2019-02-06T10:00:24.991Z,1022.85
2019-02-06T10:01:25.711Z,1022.90
2019-02-06T10:02:24.811Z,1022.90
2019-02-06T10:03:24.671Z,1022.87
2019-02-06T10:04:24.660Z,1022.81
2019-02-06T10:05:24.639Z,1022.81
2019-02-06T10:06:24.657Z,1022.80
2019-02-06T10:07:24.711Z,1022.77
2019-02-06T10:08:24.651Z,1022.78
2019-02-06T10:09:24.596Z,1022.80
2019-02-06T10:10:24.683Z,1022.80
2019-02-06T10:11:26.631Z,1022.81
2019-02-06T10:12:25.654Z,1022.85
2019-02-06T10:13:25.552Z,1022.85
2019-02-06T10:14:24.565Z,1022.86
2019-02-06T10:15:26.594Z,1022.77
2019-02-06T10:16:24.555Z,1022.76
2019-02-06T10:17:24.540Z,1022.78
2019-02-06T10:18:24.606Z,1022.73
2019-02-06T10:19:24.442Z,1022.66
2019-02-06T10:21:25.999Z,1022.60
2019-02-06T10:22:24.547Z,1022.60
2019-02-06T10:23:24.479Z,1022.55
2019-02-06T10:26:26.004Z,1022.50
2019-02-06T10:29:29.513Z,1022.30
2019-02-06T10:31:48.418Z,1022.35
2019-02-06T10:32:47.474Z,1022.31
2019-02-06T10:33:24.321Z,1022.38
2019-02-06T10:37:52.034Z,1022.35
2019-02-06T10:40:02.345Z,1022.28
2019-02-06T10:42:04.304Z,1022.23
2019-02-06T10:43:02.203Z,1022.25
2019-02-06T10:46:05.095Z,1022.23
2019-02-06T10:48:03.732Z,1022.19
2019-02-06T10:50:03.323Z,1022.20
2019-02-06T10:52:08.805Z,1022.08
2019-02-06T10:58:24.619Z,1021.98
2019-02-06T10:59:24.734Z,1022.02
2019-02-06T11:00:41.950Z,1022.02
2019-02-06T11:04:35.879Z,1021.95
2019-02-06T11:05:56.795Z,1022.01
2019-02-06T11:06:56.863Z,1021.96
2019-02-06T11:07:56.837Z,1021.94
2019-02-06T11:13:03.587Z,1021.82
2019-02-06T11:13:57.663Z,1021.79
2019-02-06T11:14:59.720Z,1021.80
2019-02-06T11:18:19.787Z,1021.85
2019-02-06T11:20:00.658Z,1021.96
2019-02-06T11:20:57.606Z,1021.94
2019-02-06T11:22:58.614Z,1021.93
2019-02-06T11:23:57.585Z,1021.93
2019-02-06T11:24:57.574Z,1021.89
2019-02-06T11:25:57.563Z,1021.88
2019-02-06T11:26:57.519Z,1021.86
2019-02-06T11:27:57.523Z,1021.84
2019-02-06T11:28:59.489Z,1021.82
2019-02-06T11:29:57.481Z,1021.82
2019-02-06T11:30:59.599Z,1021.83
2019-02-06T11:31:59.457Z,1021.76
2019-02-06T11:32:57.587Z,1021.73
2019-02-06T11:33:57.433Z,1021.71
2019-02-06T11:34:57.455Z,1021.68
2019-02-06T11:35:57.426Z,1021.66
2019-02-06T11:37:59.098Z,1021.59
2019-02-06T11:39:18.393Z,1021.62
2019-02-06T11:39:58.331Z,1021.56
2019-02-06T11:40:57.393Z,1021.48
2019-02-06T11:42:18.357Z,1021.62
2019-02-06T11:42:59.528Z,1021.67
2019-02-06T11:43:57.421Z,1021.54
2019-02-06T11:44:59.405Z,1021.57
2019-02-06T11:45:57.324Z,1021.57
2019-02-06T11:46:57.412Z,1021.54
2019-02-06T11:47:59.221Z,1021.48
2019-02-06T11:48:57.287Z,1021.46
2019-02-06T11:49:57.282Z,1021.49
2019-02-06T11:50:57.251Z,1021.43
2019-02-06T11:51:57.295Z,1021.41
2019-02-06T11:54:00.467Z,1021.38
2019-02-06T11:54:57.251Z,1021.38
2019-02-06T11:56:00.106Z,1021.35
2019-02-06T11:56:57.252Z,1021.30
2019-02-06T11:58:59.122Z,1021.19
2019-02-06T11:59:59.335Z,1021.22
2019-02-06T12:02:58.637Z,1021.13
2019-02-06T12:03:58.285Z,1021.09
2019-02-06T12:04:57.158Z,1021.08
2019-02-06T12:10:59.104Z,1021.05
2019-02-06T12:11:57.074Z,1021.06
2019-02-06T12:13:00.054Z,1021.12
2019-02-06T12:13:59.729Z,1021.09
2019-02-06T12:15:00.754Z,1021.02
2019-02-06T12:17:58.616Z,1021.00
2019-02-06T12:18:58.995Z,1020.96
2019-02-06T12:19:56.973Z,1020.94
2019-02-06T12:20:58.953Z,1020.92
2019-02-06T12:21:58.919Z,1020.91
2019-02-06T12:24:03.123Z,1020.88
2019-02-06T12:26:58.112Z,1020.81
2019-02-06T12:28:19.935Z,1020.78
2019-02-06T12:28:56.927Z,1020.76
2019-02-06T12:32:59.177Z,1020.65
2019-02-06T12:34:59.148Z,1020.62
2019-02-06T12:39:08.055Z,1020.54
2019-02-06T12:40:07.995Z,1020.49
2019-02-06T12:41:10.831Z,1020.52
2019-02-06T12:42:07.917Z,1020.47
2019-02-06T12:43:10.506Z,1020.49
2019-02-06T12:44:07.956Z,1020.40
2019-02-06T12:45:08.027Z,1020.44
2019-02-06T12:46:07.973Z,1020.40
2019-02-06T12:49:09.480Z,1020.33
2019-02-06T12:50:07.978Z,1020.33
2019-02-06T12:51:08.923Z,1020.29
2019-02-06T12:52:07.846Z,1020.30
2019-02-06T12:53:07.833Z,1020.28
2019-02-06T12:55:09.937Z,1020.26
2019-02-06T12:56:07.852Z,1020.27
2019-02-06T12:57:07.909Z,1020.30
2019-02-06T12:58:07.821Z,1020.26
2019-02-06T12:59:07.789Z,1020.33
2019-02-06T13:00:07.824Z,1020.24
2019-02-06T13:01:09.719Z,1020.26
2019-02-06T13:02:09.279Z,1020.26
2019-02-06T13:03:07.711Z,1020.21
2019-02-06T13:05:08.848Z,1020.21
2019-02-06T13:06:07.702Z,1020.20
2019-02-06T13:08:09.182Z,1020.19
2019-02-06T13:09:07.652Z,1020.14
2019-02-06T13:10:07.743Z,1020.16
2019-02-06T13:12:08.857Z,1020.09
2019-02-06T13:13:09.734Z,1020.04
2019-02-06T13:14:07.590Z,1020.04
2019-02-06T13:16:09.210Z,1020.11
2019-02-06T13:17:07.542Z,1020.02
2019-02-06T13:18:07.655Z,1020.01
2019-02-06T13:21:09.160Z,1019.96
2019-02-06T13:22:30.511Z,1019.99
2019-02-06T13:23:28.588Z,1019.96
2019-02-06T13:24:28.483Z,1019.99
2019-02-06T13:25:28.491Z,1020.00
2019-02-06T13:26:30.640Z,1019.98
2019-02-06T13:27:28.459Z,1020.01
2019-02-06T13:28:28.456Z,1019.99
2019-02-06T13:30:29.896Z,1020.00
2019-02-06T13:31:28.387Z,1020.00
2019-02-06T13:33:38.988Z,1019.95
2019-02-06T13:34:17.846Z,1019.95
2019-02-06T13:35:17.783Z,1019.99
2019-02-06T13:36:17.750Z,1019.92
2019-02-06T13:38:19.150Z,1019.94
2019-02-06T13:39:17.781Z,1019.96
2019-02-06T13:41:19.972Z,1019.87
2019-02-06T13:42:38.683Z,1019.87
2019-02-06T13:43:17.670Z,1019.90
2019-02-06T13:44:17.772Z,1019.88
2019-02-06T13:45:17.637Z,1019.90
2019-02-06T13:46:19.418Z,1019.89
2019-02-06T13:47:18.639Z,1019.88
2019-02-06T13:49:18.841Z,1019.86
2019-02-06T13:50:22.004Z,1019.84
2019-02-06T13:51:20.530Z,1019.85
2019-02-06T13:52:17.560Z,1019.81
2019-02-06T13:53:17.534Z,1019.82
2019-02-06T13:54:17.534Z,1019.77
2019-02-06T13:55:17.547Z,1019.80
2019-02-06T13:58:20.370Z,1019.70
2019-02-06T13:59:19.573Z,1019.72
2019-02-06T14:00:19.498Z,1019.67
2019-02-06T14:03:18.831Z,1019.64
2019-02-06T14:06:18.826Z,1019.59
2019-02-06T14:07:17.373Z,1019.60
2019-02-06T14:08:17.385Z,1019.61
2019-02-06T14:10:18.615Z,1019.57
2019-02-06T14:12:18.863Z,1019.52
2019-02-06T14:13:39.382Z,1019.52
2019-02-06T14:15:18.823Z,1019.48
2019-02-06T14:16:17.538Z,1019.43
2019-02-06T14:17:18.406Z,1019.37
2019-02-06T14:18:17.334Z,1019.43
2019-02-06T14:19:17.300Z,1019.41
2019-02-06T14:21:18.479Z,1019.42
2019-02-06T14:22:19.288Z,1019.37
2019-02-06T14:23:17.275Z,1019.36
2019-02-06T14:24:19.272Z,1019.39
2019-02-06T14:25:17.193Z,1019.39
2019-02-06T14:27:17.172Z,1019.30
2019-02-06T14:28:21.196Z,1019.38
2019-02-06T14:29:19.182Z,1019.30
2019-02-06T14:30:17.139Z,1019.24
2019-02-06T14:31:17.202Z,1019.27
2019-02-06T14:32:17.122Z,1019.25
2019-02-06T14:33:17.139Z,1019.27
2019-02-06T14:35:20.087Z,1019.30
2019-02-06T14:36:17.080Z,1019.27
2019-02-06T14:37:18.981Z,1019.31
2019-02-06T14:38:17.060Z,1019.29
2019-02-06T14:39:19.885Z,1019.28
2019-02-06T14:40:17.054Z,1019.34
2019-02-06T14:41:19.039Z,1019.30
2019-02-06T14:42:19.005Z,1019.30
2019-02-06T14:43:17.054Z,1019.23
2019-02-06T14:44:17.005Z,1019.22